• Join FlightAware (Why Join?)
  • Login
  • US Flag 
Rudolph Flight #1: Arrived! 
06:11AM EST


 

Airport Tracker/Info


-or-


 

Live Flight TrackerFlight Track Log ✈ N20EW ✈ 17-Apr-2013 ✈ KLEX - KPBX

Flight Track Log - Related Links

Times and Time Zones

All times are in EDT time to prevent confusion due to time zone crossing. See the N20EW flight status page for this flight to view local times or setup timezone preferences in your user account.

Time Position Orientation Groundspeed Altitude Reporting Facility
EDT Latitude Longitude Course Direction KTS MPH feet Rate Location/Type
02:28PM 38.0072 -84.6364 105° East 177 204 2,100  Level Indianapolis Center
02:29PM 37.9758 -84.6203 158° South 187 215 4,200 2,100 Climbing Indianapolis Center
02:30PM 37.9658 -84.5497 100° East 176 203 6,500 2,100 Climbing Indianapolis Center
02:31PM 37.9525 -84.4850 105° East 186 214 8,600 1,980 Climbing Indianapolis Center
02:33PM 37.9408 -84.4197 103° East 190 219 10,600 1,080 Climbing Indianapolis Center
02:34PM 37.9148 -84.1242 105° East  Level FlightAware Approximate
02:34PM 37.9247 -84.3456 105° East 214 246 10,900  Level Indianapolis Center
02:35PM 37.9072 -84.2522 103° East 265 305 10,900  Level Indianapolis Center
02:36PM 37.8878 -84.1600 105° East 271 312 10,900  Level Indianapolis Center
02:37PM 37.8697 -84.0650 104° East 276 318 10,900  Level Indianapolis Center
02:38PM 37.8478 -83.9556 104° East 276 318 10,900  Level Indianapolis Center
02:39PM 37.8289 -83.8619 104° East 275 316 10,900  Level Indianapolis Center
02:40PM 37.8097 -83.7650 104° East 281 323 10,900  Level Indianapolis Center
02:41PM 37.7911 -83.6700 104° East 278 320 10,900  Level Indianapolis Center
02:42PM 37.7719 -83.5747 104° East 280 322 10,900  Level Indianapolis Center
02:43PM 37.7519 -83.4800 105° East 278 320 10,900 -60 Level Indianapolis Center
02:44PM 37.7303 -83.3711 104° East 272 313 10,800 -600 Descending Indianapolis Center
02:45PM 37.7100 -83.2731 105° East 284 327 9,700 -960 Descending Indianapolis Center
02:46PM 37.6900 -83.1767 105° East 285 328 8,900 -900 Descending Indianapolis Center
02:47PM 37.6711 -83.0822 104° East 279 321 7,900 -1,020 Descending Indianapolis Center
02:48PM 37.6514 -82.9922 105° East 270 311 6,900 -1,020 Descending Indianapolis Center
02:49PM 37.6314 -82.8997 105° East 271 312 5,800 -1,080 Descending Indianapolis Center